首页
METAR-TAF:

METAR-TAF

机场 :

海口美兰国际机场

海口, 中华人民共和国

纬度: 19-56-05N, 经度: 110-27-32E, 海拔: 23米

当前天气观测

该预报发布于25分钟前的04:00 UTC
风速6节,风向东转东南,在南转南东之间变化
温度 29°C
湿度 70%
气压 1015 hPa
能见度10公里或以上
多云层高于2600英尺

METAR: ZJHK 180400Z 12003MPS 080V150 9999 BKN026 29/23 Q1015 NOSIG

时间: 12:25 (04:25 UTC)

预报

该预报发布于8小时和54分钟前的19:31 UTC
预报有效从18日的 00点(UTC)到 18日的 24点(UTC)
风速6节,风向东转东南
能見度: 6000
散云层高于1600英尺
成为
从 18日的 09点(UTC)到 18日的 10点(UTC)
风速10节,风向东北
多云层高于700英尺
阴天层高于3000英尺

TAF: ZJHK 171931Z 1800/1824 11003MPS 6000 SCT016 TX29/1806Z TN24/1823Z BECMG 1809/1810 04005MPS BKN007 OVC030

超过4000个机场的气象观测和天气预报(METAR&TAF报告)。

可查询的气象台以黄色和红色小点在地图上表示。

将鼠标移到小点上方,可查看气象台名称。

然后点击查看天气观测和预报。

如需切换地图:点击带黑十字的绿色按钮放大地图;点击带横线的绿色按钮缩小地图;或者点击绿色箭头查看邻近地区的地图。


METAR-TAF: